CheckWX is a tool to help pilots better visualize weather data.  It is not intended as a substitute for an official pre-flight weather briefing.

12:23:37 UTC

KBWW METAR
Bowman Regional Airport
Bowman, North Dakota, USA
Current

9 mins ago

KBWW 181215Z AUTO 31008KT 10SM FEW026 BKN090 OVC120 M21/M23 A3021 RMK AO2
Observed
Feb-18 @ 12:15 UTC
Wind
  • 310° at 8 KTS
Visibility
10 SM
Flight Rules
VFR
Cloud Levels
  • Few at 2,600' AGL
  • Broken at 9,000' AGL
  • Overcast at 12,000' AGL
Temperature
-21°C / -6°F
Dewpoint
-23°C / -9°F
Humidity
84%
Altimeter
30.21" Hg
Pressure
1023.02 hPa
Previous

29 mins ago

KBWW 181155Z AUTO 30008KT 10SM FEW026 BKN090 OVC110 M21/M23 A3021 RMK AO2
Observed
Feb-18 @ 11:55 UTC
Wind
  • 300° at 8 KTS
Visibility
10 SM
Flight Rules
VFR
Cloud Levels
  • Few at 2,600' AGL
  • Broken at 9,000' AGL
  • Overcast at 11,000' AGL
Temperature
-21°C / -6°F
Dewpoint
-23°C / -9°F
Humidity
84%
Altimeter
30.21" Hg
Pressure
1023.02 hPa
Previous

49 mins ago

KBWW 181135Z AUTO 29008KT 10SM OVC090 M21/M23 A3021 RMK AO2
Observed
Feb-18 @ 11:35 UTC
Wind
  • 290° at 8 KTS
Visibility
10 SM
Flight Rules
VFR
Cloud Levels
  • Overcast at 9,000' AGL
Temperature
-21°C / -6°F
Dewpoint
-23°C / -9°F
Humidity
84%
Altimeter
30.21" Hg
Pressure
1023.02 hPa